KANQ/ANQ METAR and TAF weather

Enter ICAO airport designator
Station Type Date Time Source
KANQ METAR 2019/04/19 22:15 UTC NOAA

KANQ 192215Z AUTO 01017KT 10SM OVC016 06/03 A2972 RMK AO2


Station Type Date Time Source
KANQ Decoded METAR 2019/04/19 22:15 UTC NOAA

Station name not available
Apr 19, 2019 - 06:15 PM EDT / 2019.04.19 2215 UTC
Wind: from the N (010 degrees) at 20 MPH (17 KT):0
Visibility: 10 mile(s):0
Sky conditions: overcast
Temperature: 42 F (6 C)
Dew Point: 37 F (3 C)
Relative Humidity: 81%
Pressure (altimeter): 29.72 in. Hg (1006 hPa)
ob: KANQ 192215Z AUTO 01017KT 10SM OVC016 06/03 A2972 RMK AO2
cycle: 22

Station Type Date Time Source
KANQ TAF UTC NOAA

Error!

Example: see airport list